Αρχική σελίδα
METAR-TAF:

METAR-TAF

Αεροδρόμια :

Ibadan, Νιγηρία

γεωγραφικό πλάτος: 07-26N, γεωγραφικό μήκος: 003-54E, υψόμετρο: 234 μ

Παρών καιρός

Η αναφορά έγινε 2 ώρες και 25 λεπτά πριν, στις 08:00 UTC
Άνεμος 5 kt από Β/BA
Θερμοκρασία 26°C
Υγρασία 84%
Πίεση 1015 hPa
Ορατότητα: 6000 μ
καταχνιά

METAR: DNIB 130800Z 03005KT 6000 HZ NSC 26/23 Q1015

Χρόνος: 11:25 (10:25 UTC)

Πρόγνωση Καιρού

Η αναφορά έγινε 6 ώρες και 35 λεπτά πριν, στις 03:50 UTC
Η πρόγνωση ισχύει από τις 13 στις 06 UTC έως τις 14 στις 12 UTC
Άνεμος 5 kt από BA
Ορατότητα: 5000 μ
καταχνιά
Προσωρινά
από 13 στις 06 UTC έως τις 13 στις 09 UTC
Ορατότητα: 3000 μ
Καθιστάμενος
από 13 στις 12 UTC έως τις 13 στις 14 UTC
Άνεμος 10 kt από Ν/NA
Ορατότητα: 7000 μ

TAF: DNIB 130350Z 1306/1412 04005KT 5000 HZ NSC TEMPO 1306/1309 3000 BECMG 1312/1314 15010KT 7000 NSW

Μετεωρολογικές αναφορές και προγνώσεις για περισσότερα από 4000 αεροδρόμια (δελτία METAR και TAF).

Οι διαθέσιμοι σταθμοί απεικονίζονται στο χάρτη με κίτρινες και κόκκινες κουκκίδες.

Μετακινήστε το ποντίκι πάνω από τις κουκκίδες για να δείτε το όνομα του σταθμού.

Στη συνέχεια, κάντε κλικ για να δείτε τις μετεωρολογικές αναφορές και τις προγνώσεις καιρού.

Για να αλλάξετε το χάρτη: κάντε κλικ στα πράσινα κουμπιά με τον μαύρο σταυρό για να ζουμάρετε, στο πράσινο κουμπί με την παύλα για να αφαιρέσετε το ζουμ ή στα πράσινα βέλη για να αντιπαραβάλλετε χάρτες.


METAR-TAF: